首页
METAR-TAF:

METAR-TAF

机场 :

梅赫拉巴德國際機場

德黑兰, 伊朗

纬度: 35-41N, 经度: 051-21E, 海拔: 1204米

当前天气观测

该预报发布于36分钟前的14:00 UTC
风速14节,风向西
温度 22°C
湿度 27%
气压 1018 hPa
能见度10公里或以上
少量云层高于4000英尺
散云层高于20000英尺

METAR: OIII 231400Z 27014KT 9999 FEW040 SCT200 22/02 Q1018 A3007 NOSIG

时间: 18:06 (14:36 UTC)

预报

该预报发布于3小时和36分钟前的11:00 UTC
预报有效从23日的 12点(UTC)到 24日的 18点(UTC)
风速12节,风向北转西北
能见度10公里或以上
1500米以下无云,无积雨云
短暂存在
从 23日的 12点(UTC)到 23日的 18点(UTC)
风速23节,风向西

TAF: OIII 231100Z 2312/2418 34006MPS CAVOK TEMPO 2312/2318 26012MPS

超过4000个机场的气象观测和天气预报(METAR&TAF报告)。

可查询的气象台以黄色和红色小点在地图上表示。

将鼠标移到小点上方,可查看气象台名称。

然后点击查看天气观测和预报。

如需切换地图:点击带黑十字的绿色按钮放大地图;点击带横线的绿色按钮缩小地图;或者点击绿色箭头查看邻近地区的地图。


METAR-TAF: